createdAt,value
2023-10-30T00:00:09.475Z,473.97
2023-10-30T00:02:41.397Z,464.23
2023-10-30T00:05:13.120Z,462.37
2023-10-30T00:07:44.887Z,461.50
2023-10-30T00:10:16.627Z,457.20
2023-10-30T00:12:48.343Z,459.97
2023-10-30T00:15:20.121Z,459.57
2023-10-30T00:17:51.892Z,460.70
2023-10-30T00:20:23.549Z,460.37
2023-10-30T00:22:55.204Z,460.03
2023-10-30T00:25:27.223Z,459.17
2023-10-30T00:28:01.221Z,459.37
2023-10-30T00:30:33.040Z,456.67
2023-10-30T00:33:04.958Z,466.92
2023-10-30T00:35:36.943Z,457.87
2023-10-30T00:38:08.590Z,459.50
2023-10-30T00:40:40.293Z,460.20
2023-10-30T00:43:12.057Z,460.37
2023-10-30T00:45:43.792Z,457.40
2023-10-30T00:48:15.677Z,458.47
2023-10-30T00:50:49.316Z,460.87
2023-10-30T00:53:20.965Z,459.13
2023-10-30T00:55:52.884Z,459.07
2023-10-30T00:58:24.595Z,460.97
2023-10-30T01:00:56.252Z,457.77
2023-10-30T01:03:28.269Z,459.40
2023-10-30T01:06:00.734Z,455.87
2023-10-30T01:08:32.483Z,456.30
2023-10-30T01:11:04.431Z,678.35
2023-10-30T01:13:37.460Z,492.07
2023-10-30T01:16:09.173Z,468.40
2023-10-30T01:18:41.606Z,459.33
2023-10-30T01:21:14.007Z,457.97
2023-10-30T01:23:45.668Z,456.30
2023-10-30T01:26:17.276Z,464.45
2023-10-30T01:28:49.016Z,456.70
2023-10-30T01:31:22.974Z,456.50
2023-10-30T01:33:55.641Z,456.07
2023-10-30T01:36:27.512Z,453.87
2023-10-30T01:38:59.482Z,457.63
2023-10-30T01:41:31.208Z,456.50
2023-10-30T01:44:02.886Z,456.37
2023-10-30T01:46:34.654Z,613.40
2023-10-30T01:49:06.582Z,469.13
2023-10-30T01:51:38.497Z,460.80
2023-10-30T01:54:10.397Z,457.47
2023-10-30T01:56:42.635Z,457.67
2023-10-30T01:59:14.698Z,456.97
2023-10-30T02:01:46.709Z,457.30
2023-10-30T02:04:18.421Z,793.60
2023-10-30T02:06:50.134Z,508.90
2023-10-30T02:09:21.921Z,461.80
2023-10-30T02:11:53.635Z,460.27
2023-10-30T02:14:25.618Z,459.10
2023-10-30T02:16:57.398Z,457.87
2023-10-30T02:19:29.366Z,459.30
2023-10-30T02:22:01.038Z,492.17
2023-10-30T02:24:32.848Z,460.23
2023-10-30T02:27:04.777Z,458.47
2023-10-30T02:29:36.498Z,458.70
2023-10-30T02:32:08.225Z,457.63
2023-10-30T02:34:40.094Z,454.73
2023-10-30T02:37:11.789Z,457.43
2023-10-30T02:39:43.513Z,458.03
2023-10-30T02:42:15.191Z,459.60
2023-10-30T02:44:46.941Z,460.47
2023-10-30T02:47:18.718Z,457.87
2023-10-30T02:49:50.663Z,459.60
2023-10-30T02:52:22.651Z,457.10
2023-10-30T02:54:54.308Z,458.37
2023-10-30T02:57:26.089Z,461.90
2023-10-30T02:59:57.779Z,459.77
2023-10-30T03:02:29.833Z,459.00
2023-10-30T03:05:01.725Z,457.77
2023-10-30T03:07:34.616Z,455.67
2023-10-30T03:10:06.828Z,457.73
2023-10-30T03:12:38.597Z,458.47
2023-10-30T03:15:10.665Z,636.30
2023-10-30T03:17:42.433Z,480.83
2023-10-30T03:20:15.140Z,458.17
2023-10-30T03:22:46.896Z,459.07
2023-10-30T03:25:18.620Z,457.87
2023-10-30T03:27:50.350Z,459.13
2023-10-30T03:30:22.095Z,451.37
2023-10-30T03:32:53.839Z,453.87
2023-10-30T03:35:25.553Z,452.27
2023-10-30T03:37:57.491Z,452.17
2023-10-30T03:40:29.149Z,453.00
2023-10-30T03:43:00.844Z,450.80
2023-10-30T03:45:32.611Z,452.90
2023-10-30T03:48:04.647Z,454.17
2023-10-30T03:50:36.420Z,546.40
2023-10-30T03:53:08.070Z,460.87
2023-10-30T03:55:39.737Z,456.97
2023-10-30T03:58:11.501Z,454.17
2023-10-30T04:00:43.226Z,456.00
2023-10-30T04:03:15.081Z,454.23
2023-10-30T04:05:46.820Z,450.87
2023-10-30T04:08:18.487Z,452.08
2023-10-30T04:10:50.707Z,453.33
2023-10-30T04:13:22.402Z,451.10
2023-10-30T04:15:54.189Z,452.07
2023-10-30T04:18:26.645Z,452.07
2023-10-30T04:20:59.186Z,450.63
2023-10-30T04:23:31.108Z,449.93
2023-10-30T04:26:02.972Z,506.02
2023-10-30T04:28:34.817Z,453.47
2023-10-30T04:31:07.774Z,451.97
2023-10-30T04:33:40.867Z,448.67
2023-10-30T04:36:14.012Z,450.57
2023-10-30T04:38:45.780Z,449.37
2023-10-30T04:41:17.458Z,453.77
2023-10-30T04:43:49.116Z,457.95
2023-10-30T04:46:20.780Z,455.80
2023-10-30T04:48:52.502Z,451.13
2023-10-30T04:51:24.231Z,457.07
2023-10-30T04:53:56.307Z,452.87
2023-10-30T04:56:29.132Z,452.40
2023-10-30T04:59:00.807Z,457.20
2023-10-30T05:01:32.524Z,451.37
2023-10-30T05:04:04.637Z,452.23
2023-10-30T05:06:36.530Z,454.97
2023-10-30T05:09:08.256Z,453.80
2023-10-30T05:11:40.041Z,451.07
2023-10-30T05:14:11.680Z,452.13
2023-10-30T05:16:43.468Z,449.50
2023-10-30T05:19:15.250Z,473.00
2023-10-30T05:21:46.950Z,455.03
2023-10-30T05:24:18.776Z,453.57
2023-10-30T05:26:53.061Z,457.40
2023-10-30T05:29:24.753Z,454.53
2023-10-30T05:31:56.451Z,456.70
2023-10-30T05:34:32.120Z,460.83
2023-10-30T05:37:07.343Z,457.47
2023-10-30T05:39:39.265Z,460.30
2023-10-30T05:42:11.009Z,457.10
2023-10-30T05:44:42.802Z,455.87
2023-10-30T05:47:14.758Z,455.60
2023-10-30T05:49:46.900Z,453.97
2023-10-30T05:52:18.772Z,454.67
2023-10-30T05:54:51.193Z,514.72
2023-10-30T05:57:23.005Z,460.37
2023-10-30T05:59:54.853Z,457.70
2023-10-30T06:02:26.656Z,455.77
2023-10-30T06:04:58.436Z,458.47
2023-10-30T06:07:30.180Z,456.57
2023-10-30T06:10:05.737Z,457.17
2023-10-30T06:12:40.854Z,451.97
2023-10-30T06:15:13.760Z,453.40
2023-10-30T06:17:45.876Z,454.40
2023-10-30T06:20:17.568Z,454.37
2023-10-30T06:22:49.409Z,454.97
2023-10-30T06:25:21.016Z,454.63
2023-10-30T06:27:54.179Z,455.60
2023-10-30T06:30:25.919Z,650.47
2023-10-30T06:32:57.761Z,468.23
2023-10-30T06:35:29.510Z,462.87
2023-10-30T06:38:01.149Z,457.20
2023-10-30T06:40:32.982Z,456.20
2023-10-30T06:43:04.707Z,456.73
2023-10-30T06:45:36.459Z,457.13
2023-10-30T06:48:08.756Z,456.70
2023-10-30T06:50:40.426Z,456.47
2023-10-30T06:53:12.203Z,453.63
2023-10-30T06:55:43.990Z,456.93
2023-10-30T06:58:15.732Z,459.50
2023-10-30T07:00:47.455Z,457.77
2023-10-30T07:03:19.334Z,463.38
2023-10-30T07:05:51.130Z,461.40
2023-10-30T07:08:22.752Z,461.67
2023-10-30T07:10:54.557Z,466.10
2023-10-30T07:13:26.222Z,463.53
2023-10-30T07:15:58.014Z,462.10
2023-10-30T07:18:30.245Z,463.50
2023-10-30T07:21:02.980Z,460.67
2023-10-30T07:23:35.209Z,461.60
2023-10-30T07:26:06.930Z,460.97
2023-10-30T07:28:38.696Z,459.27
2023-10-30T07:31:10.509Z,465.90
2023-10-30T07:33:42.319Z,466.60
2023-10-30T07:36:14.198Z,466.73
2023-10-30T07:38:46.005Z,463.30
2023-10-30T07:41:17.710Z,459.47
2023-10-30T07:43:49.383Z,462.53
2023-10-30T07:46:21.126Z,458.57
2023-10-30T07:48:52.837Z,461.23
2023-10-30T07:51:24.544Z,458.83
2023-10-30T07:53:56.241Z,462.73
2023-10-30T07:56:27.924Z,465.20
2023-10-30T07:58:59.619Z,462.17
2023-10-30T08:01:31.348Z,466.53
2023-10-30T08:04:03.175Z,464.00
2023-10-30T08:06:34.883Z,463.40
2023-10-30T08:09:06.637Z,463.83
2023-10-30T08:11:38.261Z,464.40
2023-10-30T08:14:10.048Z,641.83
2023-10-30T08:16:41.715Z,477.97
2023-10-30T08:19:13.384Z,469.33
2023-10-30T08:21:45.172Z,469.00
2023-10-30T08:24:18.995Z,467.77
2023-10-30T08:26:50.845Z,462.80
2023-10-30T08:29:22.536Z,462.23
2023-10-30T08:31:54.328Z,462.80
2023-10-30T08:34:26.013Z,466.20
2023-10-30T08:36:57.934Z,466.37
2023-10-30T08:39:29.805Z,470.00
2023-10-30T08:42:01.531Z,462.63
2023-10-30T08:44:34.153Z,466.13
2023-10-30T08:47:05.927Z,474.43
2023-10-30T08:49:37.611Z,468.60
2023-10-30T08:52:10.662Z,467.37
2023-10-30T08:54:43.880Z,467.30
2023-10-30T08:57:20.236Z,466.37
2023-10-30T08:59:52.144Z,475.30
2023-10-30T09:02:26.159Z,474.17
2023-10-30T09:04:58.512Z,529.10
2023-10-30T09:07:30.954Z,499.23
2023-10-30T09:10:02.855Z,501.53
2023-10-30T09:12:34.598Z,503.10
2023-10-30T09:15:09.137Z,515.57
2023-10-30T09:17:40.836Z,528.53
2023-10-30T09:20:13.676Z,554.87
2023-10-30T09:22:45.478Z,679.95
2023-10-30T09:25:17.180Z,646.17
2023-10-30T09:27:51.337Z,663.77
2023-10-30T09:30:30.655Z,697.30
2023-10-30T09:33:02.468Z,732.03
2023-10-30T09:35:35.447Z,764.63
2023-10-30T09:38:07.160Z,759.30
2023-10-30T09:40:38.849Z,776.60
2023-10-30T09:43:13.450Z,788.47
2023-10-30T09:45:49.275Z,809.80
2023-10-30T09:48:21.508Z,807.50
2023-10-30T09:50:54.115Z,803.23
2023-10-30T09:53:29.128Z,802.13
2023-10-30T09:56:01.203Z,790.23
2023-10-30T09:58:34.102Z,785.97
2023-10-30T10:01:06.553Z,776.43
2023-10-30T10:03:38.525Z,773.10
2023-10-30T10:06:11.155Z,774.90
2023-10-30T10:08:44.783Z,770.50
2023-10-30T10:11:16.514Z,773.80
2023-10-30T10:14:04.147Z,751.73
2023-10-30T10:16:37.585Z,764.03
2023-10-30T10:19:22.728Z,770.40
2023-10-30T10:21:54.496Z,778.83
2023-10-30T10:24:33.560Z,775.67
2023-10-30T10:27:07.812Z,766.33
2023-10-30T10:29:40.023Z,756.60
2023-10-30T10:32:12.754Z,867.60
2023-10-30T10:34:48.120Z,781.50
2023-10-30T10:37:20.450Z,758.93
2023-10-30T10:39:54.613Z,741.80
2023-10-30T10:42:29.049Z,715.77
2023-10-30T10:45:00.949Z,678.67
2023-10-30T10:47:32.798Z,687.57
2023-10-30T10:50:05.057Z,668.17
2023-10-30T10:52:40.455Z,662.03
2023-10-30T10:55:13.539Z,656.13
2023-10-30T10:57:55.990Z,644.70
2023-10-30T11:00:32.226Z,635.77
2023-10-30T11:03:07.381Z,642.23
2023-10-30T11:05:39.848Z,638.47
2023-10-30T11:08:11.458Z,629.50
2023-10-30T11:10:57.714Z,643.23
2023-10-30T11:13:44.710Z,628.27
2023-10-30T11:16:25.216Z,624.53
2023-10-30T11:19:01.912Z,632.70
2023-10-30T11:21:35.745Z,646.73
2023-10-30T11:24:07.942Z,631.80
2023-10-30T11:26:40.849Z,647.57
2023-10-30T11:29:21.329Z,637.30
2023-10-30T11:31:53.868Z,623.60
2023-10-30T11:34:45.906Z,627.83
2023-10-30T11:37:22.448Z,610.80
2023-10-30T11:39:55.525Z,602.73
2023-10-30T11:42:29.893Z,628.87
2023-10-30T11:45:23.398Z,610.20
2023-10-30T11:48:06.231Z,611.10
2023-10-30T11:50:43.946Z,614.73
2023-10-30T11:53:20.775Z,620.60
2023-10-30T11:55:52.788Z,609.47
2023-10-30T11:58:24.789Z,617.80
2023-10-30T12:00:59.389Z,612.37
2023-10-30T12:03:31.320Z,626.13
2023-10-30T12:06:03.541Z,627.20
2023-10-30T12:08:35.375Z,639.43
2023-10-30T12:11:07.102Z,638.00
2023-10-30T12:13:39.802Z,645.80
2023-10-30T12:16:12.831Z,636.80
2023-10-30T12:18:46.024Z,631.30
2023-10-30T12:21:19.214Z,663.97
2023-10-30T12:23:51.188Z,665.73
2023-10-30T12:26:22.860Z,665.47
2023-10-30T12:29:01.327Z,655.00
2023-10-30T12:31:33.149Z,678.73
2023-10-30T12:34:19.449Z,847.25
2023-10-30T12:36:51.153Z,736.53
2023-10-30T12:39:26.076Z,681.50
2023-10-30T12:41:57.840Z,664.77
2023-10-30T12:44:29.621Z,663.77
2023-10-30T12:47:01.273Z,667.53
2023-10-30T12:49:32.951Z,661.67
2023-10-30T12:52:05.123Z,916.55
2023-10-30T12:54:37.382Z,763.30
2023-10-30T12:57:09.141Z,709.40
2023-10-30T12:59:40.952Z,694.10
2023-10-30T13:02:12.884Z,662.00
2023-10-30T13:04:45.259Z,639.07
2023-10-30T13:07:18.047Z,695.30
2023-10-30T13:09:50.005Z,682.23
2023-10-30T13:12:21.793Z,663.20
2023-10-30T13:14:53.544Z,648.30
2023-10-30T13:17:25.502Z,634.73
2023-10-30T13:19:57.243Z,664.17
2023-10-30T13:22:28.968Z,650.67
2023-10-30T13:25:05.194Z,643.53
2023-10-30T13:27:36.995Z,640.50
2023-10-30T13:30:09.450Z,648.60
2023-10-30T13:32:41.155Z,634.77
2023-10-30T13:35:13.114Z,647.87
2023-10-30T13:37:44.803Z,628.13
2023-10-30T13:40:16.683Z,624.93
2023-10-30T13:42:48.406Z,639.53
2023-10-30T13:45:20.222Z,626.50
2023-10-30T13:47:51.959Z,625.33
2023-10-30T13:50:23.678Z,602.00
2023-10-30T13:52:55.463Z,615.30
2023-10-30T13:55:27.283Z,592.97
2023-10-30T13:57:59.204Z,594.57
2023-10-30T14:00:34.880Z,604.53
2023-10-30T14:03:06.785Z,950.03
2023-10-30T14:05:38.504Z,701.33
2023-10-30T14:08:10.222Z,663.70
2023-10-30T14:10:41.908Z,654.17
2023-10-30T14:13:13.620Z,635.50
2023-10-30T14:15:45.412Z,625.43
2023-10-30T14:18:17.138Z,626.77
2023-10-30T14:20:48.817Z,630.37
2023-10-30T14:23:20.624Z,620.93
2023-10-30T14:25:52.266Z,617.77
2023-10-30T14:28:23.907Z,609.33
2023-10-30T14:30:55.600Z,613.80
2023-10-30T14:33:27.301Z,603.30
2023-10-30T14:35:59.071Z,649.03
2023-10-30T14:38:30.753Z,613.40
2023-10-30T14:41:02.433Z,603.77
2023-10-30T14:43:34.066Z,593.90
2023-10-30T14:46:05.782Z,587.67
2023-10-30T14:48:39.700Z,588.93
2023-10-30T14:51:11.490Z,580.60
2023-10-30T14:53:43.189Z,708.70
2023-10-30T14:56:14.830Z,620.83
2023-10-30T14:58:46.558Z,612.30
2023-10-30T15:01:18.348Z,602.33
2023-10-30T15:03:50.190Z,603.80
2023-10-30T15:06:22.037Z,618.77
2023-10-30T15:08:54.279Z,591.63
2023-10-30T15:11:26.363Z,729.58
2023-10-30T15:13:58.117Z,628.97
2023-10-30T15:16:29.925Z,612.70
2023-10-30T15:19:01.712Z,634.47
2023-10-30T15:21:33.458Z,585.80
2023-10-30T15:24:05.597Z,583.93
2023-10-30T15:26:38.297Z,579.27
2023-10-30T15:29:09.936Z,822.97
2023-10-30T15:31:41.620Z,663.73
2023-10-30T15:34:13.479Z,611.07
2023-10-30T15:36:45.333Z,570.47
2023-10-30T15:39:17.202Z,570.53
2023-10-30T15:41:48.869Z,563.33
2023-10-30T15:44:20.511Z,557.30
2023-10-30T15:47:00.553Z,848.90
2023-10-30T15:49:36.690Z,618.37
2023-10-30T15:59:56.519Z,539.60
2023-10-30T16:02:30.206Z,529.63
2023-10-30T16:05:03.067Z,539.60
2023-10-30T16:07:36.816Z,527.30
2023-10-30T16:10:28.582Z,511.17
2023-10-30T16:13:00.633Z,506.30
2023-10-30T16:15:32.324Z,531.50
2023-10-30T16:18:21.266Z,514.50
2023-10-30T16:23:30.616Z,514.60
2023-10-30T16:26:02.315Z,482.27
2023-10-30T16:28:34.060Z,513.93
2023-10-30T16:31:05.748Z,492.67
2023-10-30T16:33:37.718Z,502.27
2023-10-30T16:36:09.566Z,498.90
2023-10-30T16:38:41.321Z,495.20
2023-10-30T16:41:13.042Z,531.27
2023-10-30T16:43:44.827Z,503.80
2023-10-30T16:46:16.715Z,507.37
2023-10-30T16:48:48.355Z,495.40
2023-10-30T16:51:20.166Z,499.97
2023-10-30T16:53:52.784Z,507.67
2023-10-30T16:56:24.587Z,718.13
2023-10-30T16:58:56.210Z,544.60
2023-10-30T17:01:27.938Z,516.27
2023-10-30T17:03:59.683Z,509.40
2023-10-30T17:06:31.417Z,504.20
2023-10-30T17:09:03.208Z,499.60
2023-10-30T17:11:35.030Z,493.90
2023-10-30T17:14:06.701Z,499.87
2023-10-30T17:16:38.553Z,505.73
2023-10-30T17:19:10.473Z,488.27
2023-10-30T17:21:42.421Z,488.67
2023-10-30T17:24:14.396Z,487.13
2023-10-30T17:26:46.286Z,486.07
2023-10-30T17:29:18.219Z,487.63
2023-10-30T17:31:49.915Z,843.70
2023-10-30T17:34:21.637Z,566.47
2023-10-30T17:36:53.443Z,507.50
2023-10-30T17:39:25.096Z,495.13
2023-10-30T17:41:56.743Z,484.03
2023-10-30T17:44:28.378Z,484.00
2023-10-30T17:47:00.867Z,489.83
2023-10-30T17:49:32.709Z,472.07
2023-10-30T17:52:04.965Z,473.97
2023-10-30T17:54:36.734Z,476.33
2023-10-30T17:57:08.498Z,467.50
2023-10-30T17:59:40.181Z,466.57
2023-10-30T18:02:11.989Z,462.50
2023-10-30T18:04:43.645Z,478.80
2023-10-30T18:07:15.404Z,462.63
2023-10-30T18:09:47.259Z,463.77
2023-10-30T18:12:19.647Z,465.00
2023-10-30T18:14:51.753Z,461.27
2023-10-30T18:17:23.691Z,463.07
2023-10-30T18:19:55.369Z,463.77
2023-10-30T18:22:27.205Z,495.40
2023-10-30T18:24:59.010Z,468.63
2023-10-30T18:27:30.871Z,462.97
2023-10-30T18:30:02.652Z,460.77
2023-10-30T18:32:34.433Z,464.27
2023-10-30T18:35:06.802Z,465.27
2023-10-30T18:37:38.543Z,464.00
2023-10-30T18:40:10.822Z,573.15
2023-10-30T18:42:42.573Z,487.70
2023-10-30T18:45:14.630Z,470.37
2023-10-30T18:47:46.310Z,468.33
2023-10-30T18:50:18.629Z,461.97
2023-10-30T18:52:50.505Z,462.87
2023-10-30T18:55:22.354Z,463.30
2023-10-30T18:57:54.373Z,463.63
2023-10-30T19:00:26.070Z,464.67
2023-10-30T19:02:57.910Z,461.60
2023-10-30T19:05:29.759Z,460.73
2023-10-30T19:08:01.706Z,460.77
2023-10-30T19:10:33.436Z,458.87
2023-10-30T19:13:05.675Z,458.83
2023-10-30T19:15:43.562Z,462.57
2023-10-30T19:18:15.289Z,460.40
2023-10-30T19:20:47.107Z,459.60
2023-10-30T19:23:19.154Z,459.37
2023-10-30T19:25:51.018Z,450.90
2023-10-30T19:28:22.926Z,451.60
2023-10-30T19:30:54.758Z,451.63
2023-10-30T19:33:28.798Z,454.40
2023-10-30T19:36:01.005Z,449.57
2023-10-30T19:38:32.663Z,450.67
2023-10-30T19:41:04.587Z,450.07
2023-10-30T19:43:36.907Z,448.40
2023-10-30T19:46:08.652Z,451.47
2023-10-30T19:48:40.955Z,449.97
2023-10-30T19:51:12.697Z,450.80
2023-10-30T19:53:44.481Z,449.53
2023-10-30T19:56:16.247Z,450.07
2023-10-30T19:58:50.103Z,449.77
2023-10-30T20:01:21.898Z,450.37
2023-10-30T20:03:53.689Z,450.83
2023-10-30T20:06:25.481Z,453.27
2023-10-30T20:08:57.186Z,456.10
2023-10-30T20:11:28.962Z,459.40
2023-10-30T20:14:00.722Z,462.47
2023-10-30T20:16:32.454Z,455.03
2023-10-30T20:19:04.056Z,454.40
2023-10-30T20:21:36.940Z,456.80
2023-10-30T20:24:08.859Z,452.87
2023-10-30T20:26:40.520Z,454.37
2023-10-30T20:29:12.373Z,454.30
2023-10-30T20:31:44.126Z,457.67
2023-10-30T20:34:16.919Z,457.27
2023-10-30T20:36:48.538Z,456.27
2023-10-30T20:39:22.179Z,456.47
2023-10-30T20:41:53.882Z,455.37
2023-10-30T20:44:25.565Z,457.20
2023-10-30T20:46:57.191Z,457.77
2023-10-30T20:49:28.964Z,459.67
2023-10-30T20:52:00.581Z,454.80
2023-10-30T20:54:32.305Z,457.57
2023-10-30T20:57:04.175Z,455.47
2023-10-30T20:59:35.842Z,528.53
2023-10-30T21:02:07.665Z,462.87
2023-10-30T21:04:39.650Z,460.07
2023-10-30T21:07:11.449Z,458.87
2023-10-30T21:09:43.917Z,453.40
2023-10-30T21:12:15.700Z,458.33
2023-10-30T21:14:49.317Z,458.23
2023-10-30T21:17:21.318Z,457.23
2023-10-30T21:19:54.393Z,455.80
2023-10-30T21:22:26.300Z,453.07
2023-10-30T21:24:58.023Z,453.43
2023-10-30T21:27:29.815Z,455.60
2023-10-30T21:30:03.045Z,454.33
2023-10-30T21:32:34.761Z,453.40
2023-10-30T21:35:06.711Z,454.10
2023-10-30T21:37:38.462Z,455.27
2023-10-30T21:40:11.240Z,454.97
2023-10-30T21:42:42.901Z,453.20
2023-10-30T21:45:14.585Z,454.70
2023-10-30T21:47:46.283Z,453.43
2023-10-30T21:50:17.971Z,458.00
2023-10-30T21:52:49.686Z,678.10
2023-10-30T21:55:21.418Z,466.70
2023-10-30T21:57:53.071Z,456.40
2023-10-30T22:00:25.578Z,453.10
2023-10-30T22:02:57.282Z,448.40
2023-10-30T22:05:29.106Z,446.33
2023-10-30T22:08:00.800Z,444.97
2023-10-30T22:10:32.616Z,444.67
2023-10-30T22:13:04.457Z,445.47
2023-10-30T22:15:36.093Z,444.67
2023-10-30T22:18:07.859Z,446.77
2023-10-30T22:20:39.749Z,445.97
2023-10-30T22:23:11.580Z,445.50
2023-10-30T22:25:43.720Z,451.92
2023-10-30T22:28:15.506Z,445.67
2023-10-30T22:30:47.203Z,445.77
2023-10-30T22:33:18.920Z,448.00
2023-10-30T22:35:50.619Z,445.07
2023-10-30T22:38:22.291Z,439.13
2023-10-30T22:40:53.965Z,441.97
2023-10-30T22:43:25.744Z,453.60
2023-10-30T22:45:57.505Z,448.73
2023-10-30T22:48:29.216Z,444.97
2023-10-30T22:51:01.022Z,443.97
2023-10-30T22:53:32.779Z,444.97
2023-10-30T22:56:04.959Z,443.50
2023-10-30T22:58:36.629Z,444.93
2023-10-30T23:01:08.399Z,461.73
2023-10-30T23:03:40.290Z,452.37
2023-10-30T23:06:11.957Z,442.40
2023-10-30T23:08:43.709Z,443.30
2023-10-30T23:11:15.471Z,441.67
2023-10-30T23:13:47.194Z,443.50
2023-10-30T23:16:18.911Z,441.17
2023-10-30T23:18:50.713Z,439.60
2023-10-30T23:21:22.439Z,440.90
2023-10-30T23:23:54.153Z,440.37
2023-10-30T23:26:25.825Z,441.37
2023-10-30T23:28:58.990Z,442.80
2023-10-30T23:31:30.768Z,439.93
2023-10-30T23:34:02.879Z,439.57
2023-10-30T23:36:34.564Z,598.90
2023-10-30T23:39:06.316Z,448.07
2023-10-30T23:41:38.023Z,444.87
2023-10-30T23:44:09.803Z,442.80
2023-10-30T23:46:42.048Z,443.50
2023-10-30T23:49:13.839Z,444.63
2023-10-30T23:51:46.043Z,444.00
2023-10-30T23:54:22.705Z,441.80
2023-10-30T23:56:59.808Z,440.77
2023-10-30T23:59:31.667Z,439.90
